Terminal Aerodrome Forecast
Issued by NWS Buffalo, NY

Home | Current Version | Previous Version | Text Only | Print | Product List | Glossary On
Versions: 1 2 3 4 5 6 7 8 9 10 11 12 13 14 15 16 17 18 19 20 21 22 23 24
324
FTUS41 KBUF 241120
TAFROC
TAF
KROC 241120Z 2412/2512 23007KT P6SM SCT250
     FM250300 19004KT P6SM BKN110
     FM250600 19007KT P6SM BKN050
     FM251000 20007KT P6SM VCSH BKN050=

USA.gov is the U.S. government's official web portal to all federal, state and local government web resources and services.